Aviation Digital Data Service (ADDS)

Output produced by METARs form (1137 UTC 27 August 2016)
found at http://aviationweather.gov/adds/metars/
 
KDEN 271126Z 2712/2818 23007KT P6SM SCT200 
     FM271300 VRB06KT P6SM VCFG FEW003 FEW200 
     FM271700 03007KT P6SM SCT200 
     FM272100 07006KT P6SM SCT080 BKN200 
     FM280100 13008KT P6SM SCT080 BKN140 
     FM280400 21011KT P6SM FEW080 SCT140 BKN200